createdAt,value
2023-02-03T00:08:45.019Z,87
2023-02-03T00:18:44.963Z,87
2023-02-03T00:28:45.562Z,87
2023-02-03T00:38:46.123Z,87
2023-02-03T00:48:46.875Z,87
2023-02-03T00:58:47.311Z,87
2023-02-03T01:08:48.328Z,87
2023-02-03T01:18:49.387Z,87
2023-02-03T01:38:50.606Z,87
2023-02-03T01:48:50.913Z,87
2023-02-03T01:58:51.036Z,87
2023-02-03T02:18:52.182Z,87
2023-02-03T02:28:52.980Z,87
2023-02-03T02:38:53.065Z,87
2023-02-03T02:48:53.474Z,87
2023-02-03T02:58:54.539Z,87
2023-02-03T03:08:54.943Z,87
2023-02-03T03:18:55.729Z,87
2023-02-03T03:28:56.479Z,87
2023-02-03T03:38:57.203Z,87
2023-02-03T03:48:57.647Z,87
2023-02-03T03:58:58.186Z,87
2023-02-03T04:08:58.845Z,87
2023-02-03T04:18:59.644Z,87
2023-02-03T04:29:00.287Z,87
2023-02-03T04:39:00.630Z,87
2023-02-03T04:49:01.072Z,87
2023-02-03T04:59:01.825Z,87
2023-02-03T05:09:02.527Z,87
2023-02-03T05:19:03.486Z,87
2023-02-03T05:29:03.958Z,87
2023-02-03T05:39:04.307Z,87
2023-02-03T05:49:05.319Z,86
2023-02-03T05:59:06.080Z,86
2023-02-03T06:09:06.753Z,86
2023-02-03T06:19:07.650Z,86
2023-02-03T06:29:07.788Z,87
2023-02-03T06:39:08.642Z,87
2023-02-03T06:49:09.169Z,87
2023-02-03T06:59:10.152Z,87
2023-02-03T07:19:11.518Z,87
2023-02-03T07:29:11.735Z,87
2023-02-03T07:39:12.811Z,87
2023-02-03T07:49:12.971Z,87
2023-02-03T07:59:14.065Z,86
2023-02-03T08:09:15.103Z,87
2023-02-03T08:19:15.544Z,87
2023-02-03T08:29:16.024Z,91
2023-02-03T08:39:16.498Z,92
2023-02-03T08:49:16.811Z,94
2023-02-03T08:59:17.178Z,94
2023-02-03T09:09:17.876Z,95
2023-02-03T09:19:18.921Z,96
2023-02-03T09:29:19.048Z,96
2023-02-03T09:39:19.908Z,97
2023-02-03T09:49:20.777Z,97
2023-02-03T09:59:21.783Z,96
2023-02-03T10:09:22.059Z,95
2023-02-03T10:19:22.268Z,95
2023-02-03T10:29:22.550Z,95
2023-02-03T10:39:22.926Z,94
2023-02-03T10:59:24.661Z,93
2023-02-03T11:09:25.210Z,93
2023-02-03T11:19:26.077Z,93
2023-02-03T11:29:26.638Z,93
2023-02-03T11:39:26.874Z,92
2023-02-03T11:49:27.906Z,92
2023-02-03T11:59:28.414Z,92
2023-02-03T12:09:29.181Z,92
2023-02-03T12:19:29.561Z,92
2023-02-03T12:29:32.089Z,91
2023-02-03T12:39:31.109Z,91
2023-02-03T12:49:31.447Z,91
2023-02-03T12:59:31.833Z,91
2023-02-03T12:59:53.718Z,91
2023-02-03T13:09:38.249Z,91
2023-02-03T13:29:39.956Z,91
2023-02-03T13:39:40.633Z,91
2023-02-03T13:49:40.893Z,91
2023-02-03T13:59:41.748Z,91
2023-02-03T14:09:42.330Z,91
2023-02-03T14:19:43.016Z,91
2023-02-03T14:29:43.146Z,91
2023-02-03T14:39:44.135Z,91
2023-02-03T14:49:44.244Z,90
2023-02-03T14:59:44.351Z,90
2023-02-03T15:09:44.521Z,90
2023-02-03T15:19:45.301Z,90
2023-02-03T15:29:46.239Z,90
2023-02-03T15:39:46.318Z,90
2023-02-03T15:49:46.721Z,90
2023-02-03T15:59:47.223Z,90
2023-02-03T16:09:47.832Z,90
2023-02-03T16:19:48.202Z,90
2023-02-03T16:29:49.046Z,89
2023-02-03T16:39:49.543Z,89
2023-02-03T16:59:50.589Z,89
2023-02-03T17:09:51.014Z,89
2023-02-03T17:19:51.883Z,89
2023-02-03T17:29:52.721Z,89
2023-02-03T17:59:54.509Z,89
2023-02-03T18:09:55.401Z,89
2023-02-03T18:19:56.608Z,88
2023-02-03T18:29:57.285Z,88
2023-02-03T18:39:57.761Z,88
2023-02-03T18:49:57.802Z,88
2023-02-03T18:59:58.676Z,88
2023-02-03T19:09:59.528Z,88
2023-02-03T19:20:00.559Z,88
2023-02-03T19:30:01.586Z,88
2023-02-03T19:40:02.061Z,88
2023-02-03T19:50:02.903Z,88
2023-02-03T20:00:03.944Z,88
2023-02-03T20:10:04.413Z,88
2023-02-03T20:20:04.885Z,88
2023-02-03T20:30:05.781Z,88
2023-02-03T20:50:06.162Z,88
2023-02-03T21:00:06.251Z,88
2023-02-03T21:20:06.899Z,87
2023-02-03T21:30:07.614Z,87
2023-02-03T21:40:08.385Z,87
2023-02-03T21:50:08.549Z,87
2023-02-03T22:00:09.736Z,87
2023-02-03T22:20:10.417Z,87
2023-02-03T22:30:10.543Z,87
2023-02-03T23:00:12.535Z,87
2023-02-03T23:10:13.541Z,87
2023-02-03T23:30:15.376Z,87
2023-02-03T23:40:16.206Z,87
2023-02-03T23:50:16.684Z,87
